PWSweather.com
Personal Weather Stations
Station Observations
NIPERANCH
Fairview Farms, Krugerville, TX 76227

Fairview FarmsKrugerville, TX 76227

Lat: 33.269689, Lon: -96.99024299999996

Elevation: 661

Station Type: VantageVue

Latest ConditionsUpdated 8:19:43 PM CST Friday, Feb 23, 2018
Currently Today's Max Today's Min Today's Average
Temperature 44.8°F7.1°C 49.0°F9.4°C 36.6°F2.6°C 41.9°F5.5°C
Dew Point 44.0°F6.7°C 48.2°F9.0°C 35.8°F2.1°C 41.1°F5.1°C
Winds 6.0 mph W9.7 kmh W 8.0 mph WNW12.9 kmh WNW - 1.4 mph 2.3 kmh
Wind Gusts 6.0 mph9.7 kmh 9.0 mph14.5 kmh - -
Humidity 97% 98% 97% 97%
Pressure 30.09 in1019.0 mb 30.30 in1026.1 mb 30.08 in1018.6 mb -
Precipitation - 0.57 in14.5 mm - -
Hour Temp Dew Point Humidity Winds Wind Gusts Pressure Precip Precip Rate Daily Precip Total
08:19 PM 44.8°F7.1°C 44.0°F6.7°C 97% 6.0 mph W9.7 kmh W 6.0 mph9.7 kmh 30.09 in1019.0 mb 0.00 in0.0 mm 0.00 in0.0 mm 0.57 in14.5 mm
08:14 PM 44.9°F7.2°C 44.1°F6.7°C 97% 3.0 mph W4.8 kmh W 5.0 mph8.0 kmh 30.08 in1018.6 mb 0.00 in0.0 mm 0.00 in0.0 mm 0.57 in14.5 mm
08:09 PM 45.0°F7.2°C 44.2°F6.8°C 97% 1.0 mph WNW1.6 kmh WNW 6.0 mph9.7 kmh 30.09 in1019.0 mb 0.00 in0.0 mm 0.00 in0.0 mm 0.57 in14.5 mm
08:04 PM 45.1°F7.3°C 44.3°F6.8°C 97% 4.0 mph NW6.4 kmh NW 6.0 mph9.7 kmh 30.08 in1018.6 mb 0.00 in0.0 mm 0.00 in0.0 mm 0.57 in14.5 mm
07:59 PM 45.2°F7.3°C 44.4°F6.9°C 97% 2.0 mph W3.2 kmh W 5.0 mph8.0 kmh 30.09 in1019.0 mb 0.00 in0.0 mm 0.00 in0.0 mm 0.57 in14.5 mm
07:54 PM 45.1°F7.3°C 44.3°F6.8°C 97% 3.0 mph WNW4.8 kmh WNW 6.0 mph9.7 kmh 30.09 in1019.0 mb 0.00 in0.0 mm 0.00 in0.0 mm 0.57 in14.5 mm
07:49 PM 45.2°F7.3°C 44.4°F6.9°C 97% 3.0 mph W4.8 kmh W 6.0 mph9.7 kmh 30.08 in1018.6 mb 0.00 in0.0 mm 0.00 in0.0 mm 0.57 in14.5 mm
07:44 PM 45.2°F7.3°C 44.4°F6.9°C 97% 4.0 mph WSW6.4 kmh WSW 8.0 mph12.9 kmh 30.08 in1018.6 mb 0.00 in0.0 mm 0.00 in0.0 mm 0.57 in14.5 mm
07:39 PM 45.4°F7.4°C 44.6°F7.0°C 97% 3.0 mph WNW4.8 kmh WNW 8.0 mph12.9 kmh 30.08 in1018.6 mb 0.00 in0.0 mm 0.00 in0.0 mm 0.56 in14.2 mm
07:34 PM 45.5°F7.5°C 44.7°F7.1°C 97% 3.0 mph WSW4.8 kmh WSW 7.0 mph11.3 kmh 30.08 in1018.6 mb 0.00 in0.0 mm 0.00 in0.0 mm 0.56 in14.2 mm
07:29 PM 45.7°F7.6°C 44.9°F7.2°C 97% 5.0 mph W8.0 kmh W 6.0 mph9.7 kmh 30.08 in1018.6 mb 0.00 in0.0 mm 0.00 in0.0 mm 0.56 in14.2 mm
07:24 PM 46.1°F7.8°C 45.3°F7.4°C 97% 2.0 mph WNW3.2 kmh WNW 8.0 mph12.9 kmh 30.08 in1018.6 mb 0.00 in0.0 mm 0.00 in0.0 mm 0.56 in14.2 mm
07:19 PM 46.3°F7.9°C 45.5°F7.5°C 97% 3.0 mph W4.8 kmh W 8.0 mph12.9 kmh 30.08 in1018.6 mb 0.00 in0.0 mm 0.00 in0.0 mm 0.56 in14.2 mm
07:14 PM 46.7°F8.2°C 45.9°F7.7°C 97% 8.0 mph WNW12.9 kmh WNW 8.0 mph12.9 kmh 30.08 in1018.6 mb 0.00 in0.0 mm 0.00 in0.0 mm 0.56 in14.2 mm
07:09 PM 46.9°F8.3°C 46.1°F7.8°C 97% 2.0 mph NW3.2 kmh NW 7.0 mph11.3 kmh 30.08 in1018.6 mb 0.00 in0.0 mm 0.00 in0.0 mm 0.56 in14.2 mm
07:04 PM 47.0°F8.3°C 46.2°F7.9°C 97% 3.0 mph W4.8 kmh W 7.0 mph11.3 kmh 30.08 in1018.6 mb 0.00 in0.0 mm 0.00 in0.0 mm 0.56 in14.2 mm
06:59 PM 47.0°F8.3°C 46.2°F7.9°C 97% 4.0 mph WSW6.4 kmh WSW 6.0 mph9.7 kmh 30.08 in1018.6 mb 0.00 in0.0 mm 0.00 in0.0 mm 0.56 in14.2 mm
06:54 PM 47.1°F8.4°C 46.3°F7.9°C 97% 3.0 mph W4.8 kmh W 6.0 mph9.7 kmh 30.08 in1018.6 mb 0.00 in0.0 mm 0.00 in0.0 mm 0.56 in14.2 mm
06:49 PM 47.1°F8.4°C 46.3°F7.9°C 97% 4.0 mph WNW6.4 kmh WNW 6.0 mph9.7 kmh 30.08 in1018.6 mb 0.00 in0.0 mm 0.00 in0.0 mm 0.56 in14.2 mm
06:44 PM 47.2°F8.4°C 46.4°F8.0°C 97% 5.0 mph W8.0 kmh W 6.0 mph9.7 kmh 30.08 in1018.6 mb 0.00 in0.0 mm 0.00 in0.0 mm 0.56 in14.2 mm
06:39 PM 47.2°F8.4°C 46.4°F8.0°C 97% 3.0 mph WSW4.8 kmh WSW 5.0 mph8.0 kmh 30.08 in1018.6 mb 0.00 in0.0 mm 0.00 in0.0 mm 0.56 in14.2 mm
06:34 PM 47.3°F8.5°C 46.5°F8.1°C 97% 4.0 mph W6.4 kmh W 5.0 mph8.0 kmh 30.08 in1018.6 mb 0.00 in0.0 mm 0.00 in0.0 mm 0.56 in14.2 mm
06:29 PM 47.3°F8.5°C 46.5°F8.1°C 97% 3.0 mph W4.8 kmh W 3.0 mph4.8 kmh 30.08 in1018.6 mb 0.00 in0.0 mm 0.00 in0.0 mm 0.56 in14.2 mm
06:24 PM 47.3°F8.5°C 46.5°F8.1°C 97% 2.0 mph W3.2 kmh W 3.0 mph4.8 kmh 30.09 in1019.0 mb 0.00 in0.0 mm 0.00 in0.0 mm 0.56 in14.2 mm
06:19 PM 47.3°F8.5°C 46.5°F8.1°C 97% 3.0 mph WNW4.8 kmh WNW 3.0 mph4.8 kmh 30.08 in1018.6 mb 0.00 in0.0 mm 0.00 in0.0 mm 0.56 in14.2 mm
06:14 PM 47.3°F8.5°C 46.5°F8.1°C 97% 1.0 mph W1.6 kmh W 3.0 mph4.8 kmh 30.08 in1018.6 mb 0.00 in0.0 mm 0.00 in0.0 mm 0.56 in14.2 mm
06:09 PM 47.4°F8.6°C 46.6°F8.1°C 97% 1.0 mph W1.6 kmh W 3.0 mph4.8 kmh 30.08 in1018.6 mb 0.00 in0.0 mm 0.00 in0.0 mm 0.56 in14.2 mm
06:04 PM 47.5°F8.6°C 46.7°F8.2°C 97% 2.0 mph WNW3.2 kmh WNW 3.0 mph4.8 kmh 30.09 in1019.0 mb 0.00 in0.0 mm 0.00 in0.0 mm 0.56 in14.2 mm
05:59 PM 47.5°F8.6°C 46.7°F8.2°C 97% 2.0 mph W3.2 kmh W 4.0 mph6.4 kmh 30.09 in1019.0 mb 0.00 in0.0 mm 0.00 in0.0 mm 0.56 in14.2 mm
05:54 PM 47.6°F8.7°C 46.8°F8.2°C 97% 3.0 mph W4.8 kmh W 5.0 mph8.0 kmh 30.09 in1019.0 mb 0.00 in0.0 mm 0.00 in0.0 mm 0.56 in14.2 mm
05:49 PM 47.7°F8.7°C 46.9°F8.3°C 97% 2.0 mph W3.2 kmh W 4.0 mph6.4 kmh 30.10 in1019.3 mb 0.00 in0.0 mm 0.00 in0.0 mm 0.56 in14.2 mm
05:44 PM 47.7°F8.7°C 46.9°F8.3°C 97% 2.0 mph W3.2 kmh W 4.0 mph6.4 kmh 30.10 in1019.3 mb 0.00 in0.0 mm 0.00 in0.0 mm 0.56 in14.2 mm
05:39 PM 47.8°F8.8°C 47.0°F8.3°C 97% 2.0 mph W3.2 kmh W 3.0 mph4.8 kmh 30.09 in1019.0 mb 0.00 in0.0 mm 0.00 in0.0 mm 0.56 in14.2 mm
05:34 PM 47.9°F8.8°C 47.1°F8.4°C 97% 2.0 mph W3.2 kmh W 3.0 mph4.8 kmh 30.09 in1019.0 mb 0.00 in0.0 mm 0.00 in0.0 mm 0.56 in14.2 mm
05:29 PM 47.9°F8.8°C 47.1°F8.4°C 97% 2.0 mph W3.2 kmh W 3.0 mph4.8 kmh 30.09 in1019.0 mb 0.00 in0.0 mm 0.00 in0.0 mm 0.56 in14.2 mm
05:24 PM 48.0°F8.9°C 47.2°F8.4°C 97% 1.0 mph W1.6 kmh W 4.0 mph6.4 kmh 30.10 in1019.3 mb 0.00 in0.0 mm 0.00 in0.0 mm 0.56 in14.2 mm
05:19 PM 48.1°F8.9°C 47.3°F8.5°C 97% 2.0 mph WNW3.2 kmh WNW 4.0 mph6.4 kmh 30.10 in1019.3 mb 0.00 in0.0 mm 0.00 in0.0 mm 0.56 in14.2 mm
05:14 PM 48.3°F9.1°C 47.5°F8.6°C 97% 2.0 mph WSW3.2 kmh WSW 4.0 mph6.4 kmh 30.10 in1019.3 mb 0.00 in0.0 mm 0.00 in0.0 mm 0.56 in14.2 mm
05:09 PM 48.5°F9.2°C 47.7°F8.7°C 97% 2.0 mph W3.2 kmh W 4.0 mph6.4 kmh 30.10 in1019.3 mb 0.00 in0.0 mm 0.00 in0.0 mm 0.56 in14.2 mm
05:04 PM 48.9°F9.4°C 48.1°F8.9°C 97% 1.0 mph SW1.6 kmh SW 4.0 mph6.4 kmh 30.10 in1019.3 mb 0.00 in0.0 mm 0.00 in0.0 mm 0.56 in14.2 mm
04:59 PM 48.9°F9.4°C 48.1°F8.9°C 97% Calm Calm 1.0 mph1.6 kmh 30.10 in1019.3 mb 0.00 in0.0 mm 0.00 in0.0 mm 0.56 in14.2 mm
04:54 PM 48.9°F9.4°C 48.1°F8.9°C 97% 1.0 mph E1.6 kmh E 1.0 mph1.6 kmh 30.10 in1019.3 mb 0.00 in0.0 mm 0.00 in0.0 mm 0.56 in14.2 mm
04:49 PM 48.9°F9.4°C 48.1°F8.9°C 97% Calm Calm 1.0 mph1.6 kmh 30.09 in1019.0 mb 0.00 in0.0 mm 0.00 in0.0 mm 0.56 in14.2 mm
04:44 PM 49.0°F9.4°C 48.2°F9.0°C 97% Calm Calm 1.0 mph1.6 kmh 30.10 in1019.3 mb 0.00 in0.0 mm 0.00 in0.0 mm 0.56 in14.2 mm
04:39 PM 49.0°F9.4°C 48.2°F9.0°C 97% Calm Calm 1.0 mph1.6 kmh 30.10 in1019.3 mb 0.00 in0.0 mm 0.00 in0.0 mm 0.56 in14.2 mm
04:34 PM 49.0°F9.4°C 48.2°F9.0°C 97% Calm Calm -- 30.10 in1019.3 mb 0.00 in0.0 mm 0.00 in0.0 mm 0.56 in14.2 mm
04:29 PM 48.9°F9.4°C 48.1°F8.9°C 97% Calm Calm 1.0 mph1.6 kmh 30.10 in1019.3 mb 0.00 in0.0 mm 0.00 in0.0 mm 0.56 in14.2 mm
04:24 PM 48.9°F9.4°C 48.1°F8.9°C 97% Calm Calm 2.0 mph3.2 kmh 30.10 in1019.3 mb 0.00 in0.0 mm 0.00 in0.0 mm 0.56 in14.2 mm
04:19 PM 48.9°F9.4°C 48.1°F8.9°C 97% Calm Calm 2.0 mph3.2 kmh 30.10 in1019.3 mb 0.00 in0.0 mm 0.00 in0.0 mm 0.56 in14.2 mm
04:14 PM 48.9°F9.4°C 48.1°F8.9°C 97% 1.0 mph E1.6 kmh E 1.0 mph1.6 kmh 30.09 in1019.0 mb 0.00 in0.0 mm 0.00 in0.0 mm 0.56 in14.2 mm
04:09 PM 48.9°F9.4°C 48.1°F8.9°C 97% Calm Calm 1.0 mph1.6 kmh 30.10 in1019.3 mb 0.00 in0.0 mm 0.00 in0.0 mm 0.56 in14.2 mm
04:04 PM 48.9°F9.4°C 48.1°F8.9°C 97% Calm Calm 2.0 mph3.2 kmh 30.10 in1019.3 mb 0.00 in0.0 mm 0.00 in0.0 mm 0.56 in14.2 mm
03:59 PM 48.8°F9.3°C 48.0°F8.9°C 97% 1.0 mph NE1.6 kmh NE 2.0 mph3.2 kmh 30.09 in1019.0 mb 0.00 in0.0 mm 0.00 in0.0 mm 0.56 in14.2 mm
03:54 PM 48.8°F9.3°C 48.0°F8.9°C 97% Calm Calm 2.0 mph3.2 kmh 30.10 in1019.3 mb 0.00 in0.0 mm 0.00 in0.0 mm 0.56 in14.2 mm
03:49 PM 48.7°F9.3°C 47.9°F8.8°C 97% Calm Calm 4.0 mph6.4 kmh 30.10 in1019.3 mb 0.00 in0.0 mm 0.00 in0.0 mm 0.56 in14.2 mm
03:44 PM 48.7°F9.3°C 47.9°F8.8°C 97% 2.0 mph E3.2 kmh E 4.0 mph6.4 kmh 30.10 in1019.3 mb 0.00 in0.0 mm 0.00 in0.0 mm 0.56 in14.2 mm
03:39 PM 48.7°F9.3°C 47.9°F8.8°C 97% 3.0 mph ENE4.8 kmh ENE 4.0 mph6.4 kmh 30.10 in1019.3 mb 0.00 in0.0 mm 0.00 in0.0 mm 0.56 in14.2 mm
03:34 PM 48.7°F9.3°C 48.2°F9.0°C 98% 2.0 mph ENE3.2 kmh ENE 3.0 mph4.8 kmh 30.10 in1019.3 mb 0.00 in0.0 mm 0.00 in0.0 mm 0.56 in14.2 mm
03:29 PM 48.7°F9.3°C 48.2°F9.0°C 98% Calm Calm 1.0 mph1.6 kmh 30.11 in1019.6 mb 0.00 in0.0 mm 0.00 in0.0 mm 0.56 in14.2 mm
03:24 PM 48.7°F9.3°C 48.2°F9.0°C 98% Calm Calm 2.0 mph3.2 kmh 30.11 in1019.6 mb 0.00 in0.0 mm 0.00 in0.0 mm 0.56 in14.2 mm
03:19 PM 48.6°F9.2°C 48.1°F8.9°C 98% Calm Calm 2.0 mph3.2 kmh 30.11 in1019.6 mb 0.00 in0.0 mm 0.00 in0.0 mm 0.56 in14.2 mm
03:14 PM 48.5°F9.2°C 48.0°F8.9°C 98% Calm Calm 4.0 mph6.4 kmh 30.11 in1019.6 mb 0.00 in0.0 mm 0.00 in0.0 mm 0.56 in14.2 mm
03:09 PM 48.4°F9.1°C 47.9°F8.8°C 98% 3.0 mph E4.8 kmh E 4.0 mph6.4 kmh 30.10 in1019.3 mb 0.00 in0.0 mm 0.00 in0.0 mm 0.56 in14.2 mm
03:04 PM 48.3°F9.1°C 47.8°F8.8°C 98% 1.0 mph E1.6 kmh E 4.0 mph6.4 kmh 30.11 in1019.6 mb 0.00 in0.0 mm 0.00 in0.0 mm 0.56 in14.2 mm
02:59 PM 48.1°F8.9°C 47.6°F8.7°C 98% Calm Calm 4.0 mph6.4 kmh 30.11 in1019.6 mb 0.00 in0.0 mm 0.00 in0.0 mm 0.56 in14.2 mm
02:54 PM 48.0°F8.9°C 47.5°F8.6°C 98% 1.0 mph ENE1.6 kmh ENE 4.0 mph6.4 kmh 30.10 in1019.3 mb 0.00 in0.0 mm 0.00 in0.0 mm 0.56 in14.2 mm
02:49 PM 47.8°F8.8°C 47.3°F8.5°C 98% Calm Calm 3.0 mph4.8 kmh 30.11 in1019.6 mb 0.00 in0.0 mm 0.00 in0.0 mm 0.56 in14.2 mm
02:44 PM 47.5°F8.6°C 46.7°F8.2°C 97% 1.0 mph ENE1.6 kmh ENE 4.0 mph6.4 kmh 30.11 in1019.6 mb 0.00 in0.0 mm 0.00 in0.0 mm 0.56 in14.2 mm
02:39 PM 47.2°F8.4°C 46.4°F8.0°C 97% 2.0 mph ENE3.2 kmh ENE 3.0 mph4.8 kmh 30.11 in1019.6 mb 0.00 in0.0 mm 0.00 in0.0 mm 0.56 in14.2 mm
02:34 PM 46.9°F8.3°C 46.1°F7.8°C 97% Calm Calm 4.0 mph6.4 kmh 30.12 in1020.0 mb 0.00 in0.0 mm 0.00 in0.0 mm 0.56 in14.2 mm
02:29 PM 46.9°F8.3°C 46.1°F7.8°C 97% Calm Calm 4.0 mph6.4 kmh 30.13 in1020.3 mb 0.00 in0.0 mm 0.00 in0.0 mm 0.56 in14.2 mm
02:24 PM 46.8°F8.2°C 46.0°F7.8°C 97% 2.0 mph NNE3.2 kmh NNE 4.0 mph6.4 kmh 30.13 in1020.3 mb 0.00 in0.0 mm 0.00 in0.0 mm 0.56 in14.2 mm
02:19 PM 46.5°F8.1°C 45.7°F7.6°C 97% Calm Calm 5.0 mph8.0 kmh 30.13 in1020.3 mb 0.00 in0.0 mm 0.00 in0.0 mm 0.56 in14.2 mm
02:14 PM 46.4°F8.0°C 45.6°F7.6°C 97% 4.0 mph NE6.4 kmh NE 6.0 mph9.7 kmh 30.13 in1020.3 mb 0.00 in0.0 mm 0.00 in0.0 mm 0.56 in14.2 mm
02:09 PM 46.1°F7.8°C 45.3°F7.4°C 97% 3.0 mph NE4.8 kmh NE 6.0 mph9.7 kmh 30.13 in1020.3 mb 0.00 in0.0 mm 0.00 in0.0 mm 0.56 in14.2 mm
02:04 PM 46.1°F7.8°C 45.3°F7.4°C 97% 3.0 mph ENE4.8 kmh ENE 6.0 mph9.7 kmh 30.13 in1020.3 mb 0.00 in0.0 mm 0.00 in0.0 mm 0.56 in14.2 mm
01:59 PM 46.1°F7.8°C 45.3°F7.4°C 97% 2.0 mph ENE3.2 kmh ENE 6.0 mph9.7 kmh 30.14 in1020.7 mb 0.00 in0.0 mm 0.00 in0.0 mm 0.56 in14.2 mm
01:54 PM 46.1°F7.8°C 45.3°F7.4°C 97% 2.0 mph ENE3.2 kmh ENE 7.0 mph11.3 kmh 30.15 in1021.0 mb 0.00 in0.0 mm 0.00 in0.0 mm 0.56 in14.2 mm
01:49 PM 45.9°F7.7°C 45.1°F7.3°C 97% 4.0 mph NE6.4 kmh NE 7.0 mph11.3 kmh 30.15 in1021.0 mb 0.00 in0.0 mm 0.00 in0.0 mm 0.56 in14.2 mm
01:44 PM 45.8°F7.7°C 45.0°F7.2°C 97% 5.0 mph E8.0 kmh E 6.0 mph9.7 kmh 30.15 in1021.0 mb 0.00 in0.0 mm 0.00 in0.0 mm 0.56 in14.2 mm
01:39 PM 45.8°F7.7°C 45.0°F7.2°C 97% 3.0 mph NE4.8 kmh NE 6.0 mph9.7 kmh 30.15 in1021.0 mb 0.00 in0.0 mm 0.00 in0.0 mm 0.56 in14.2 mm
01:34 PM 45.8°F7.7°C 45.0°F7.2°C 97% 1.0 mph ENE1.6 kmh ENE 4.0 mph6.4 kmh 30.16 in1021.3 mb 0.00 in0.0 mm 0.00 in0.0 mm 0.56 in14.2 mm
01:29 PM 45.7°F7.6°C 44.9°F7.2°C 97% 3.0 mph NE4.8 kmh NE 5.0 mph8.0 kmh 30.17 in1021.7 mb 0.00 in0.0 mm 0.00 in0.0 mm 0.56 in14.2 mm
01:24 PM 45.5°F7.5°C 44.7°F7.1°C 97% 4.0 mph NE6.4 kmh NE 6.0 mph9.7 kmh 30.16 in1021.3 mb 0.00 in0.0 mm 0.00 in0.0 mm 0.56 in14.2 mm
01:19 PM 45.6°F7.6°C 45.1°F7.3°C 98% 2.0 mph ENE3.2 kmh ENE 6.0 mph9.7 kmh 30.17 in1021.7 mb 0.00 in0.0 mm 0.00 in0.0 mm 0.56 in14.2 mm
01:14 PM 45.4°F7.4°C 44.9°F7.2°C 98% 3.0 mph E4.8 kmh E 5.0 mph8.0 kmh 30.17 in1021.7 mb 0.00 in0.0 mm 0.00 in0.0 mm 0.56 in14.2 mm
01:09 PM 45.3°F7.4°C 44.8°F7.1°C 98% 1.0 mph NE1.6 kmh NE 5.0 mph8.0 kmh 30.18 in1022.0 mb 0.00 in0.0 mm 0.00 in0.0 mm 0.56 in14.2 mm
01:04 PM 45.1°F7.3°C 44.6°F7.0°C 98% 2.0 mph NE3.2 kmh NE 4.0 mph6.4 kmh 30.19 in1022.4 mb 0.00 in0.0 mm 0.00 in0.0 mm 0.56 in14.2 mm
12:59 PM 44.8°F7.1°C 44.3°F6.8°C 98% 3.0 mph N4.8 kmh N 4.0 mph6.4 kmh 30.19 in1022.4 mb 0.00 in0.0 mm 0.00 in0.0 mm 0.56 in14.2 mm
12:54 PM 44.6°F7.0°C 44.1°F6.7°C 98% 1.0 mph NNE1.6 kmh NNE 4.0 mph6.4 kmh 30.20 in1022.7 mb 0.00 in0.0 mm 0.00 in0.0 mm 0.56 in14.2 mm
12:49 PM 44.5°F6.9°C 44.0°F6.7°C 98% 2.0 mph N3.2 kmh N 4.0 mph6.4 kmh 30.21 in1023.0 mb 0.00 in0.0 mm 0.00 in0.0 mm 0.56 in14.2 mm
12:44 PM 44.5°F6.9°C 44.0°F6.7°C 98% 1.0 mph N1.6 kmh N 5.0 mph8.0 kmh 30.20 in1022.7 mb 0.00 in0.0 mm 0.00 in0.0 mm 0.56 in14.2 mm
12:39 PM 44.4°F6.9°C 43.9°F6.6°C 98% 3.0 mph NE4.8 kmh NE 6.0 mph9.7 kmh 30.20 in1022.7 mb 0.00 in0.0 mm 0.00 in0.0 mm 0.56 in14.2 mm
12:34 PM 44.3°F6.8°C 43.8°F6.6°C 98% 3.0 mph NE4.8 kmh NE 7.0 mph11.3 kmh 30.20 in1022.7 mb 0.00 in0.0 mm 0.00 in0.0 mm 0.56 in14.2 mm
12:29 PM 44.1°F6.7°C 43.6°F6.4°C 98% 4.0 mph NE6.4 kmh NE 5.0 mph8.0 kmh 30.21 in1023.0 mb 0.00 in0.0 mm 0.00 in0.0 mm 0.56 in14.2 mm
12:24 PM 43.9°F6.6°C 43.4°F6.3°C 98% 3.0 mph NE4.8 kmh NE 6.0 mph9.7 kmh 30.22 in1023.4 mb 0.00 in0.0 mm 0.00 in0.0 mm 0.56 in14.2 mm
12:19 PM 43.4°F6.3°C 42.9°F6.1°C 98% 2.0 mph NE3.2 kmh NE 5.0 mph8.0 kmh 30.23 in1023.7 mb 0.00 in0.0 mm 0.00 in0.0 mm 0.56 in14.2 mm
12:14 PM 43.2°F6.2°C 42.7°F5.9°C 98% 3.0 mph E4.8 kmh E 4.0 mph6.4 kmh 30.23 in1023.7 mb 0.00 in0.0 mm 0.00 in0.0 mm 0.56 in14.2 mm
12:09 PM 43.0°F6.1°C 42.5°F5.8°C 98% 1.0 mph NE1.6 kmh NE 3.0 mph4.8 kmh 30.24 in1024.0 mb 0.00 in0.0 mm 0.00 in0.0 mm 0.56 in14.2 mm
12:04 PM 43.1°F6.2°C 42.6°F5.9°C 98% 2.0 mph ENE3.2 kmh ENE 3.0 mph4.8 kmh 30.24 in1024.0 mb 0.00 in0.0 mm 0.00 in0.0 mm 0.56 in14.2 mm
11:59 AM 43.1°F6.2°C 42.6°F5.9°C 98% 2.0 mph ENE3.2 kmh ENE 3.0 mph4.8 kmh 30.24 in1024.0 mb 0.00 in0.0 mm 0.00 in0.0 mm 0.56 in14.2 mm
11:54 AM 42.9°F6.1°C 42.4°F5.8°C 98% 2.0 mph NE3.2 kmh NE 4.0 mph6.4 kmh 30.25 in1024.4 mb 0.00 in0.0 mm 0.00 in0.0 mm 0.56 in14.2 mm
11:49 AM 42.9°F6.1°C 42.4°F5.8°C 98% 2.0 mph NE3.2 kmh NE 4.0 mph6.4 kmh 30.25 in1024.4 mb 0.00 in0.0 mm 0.00 in0.0 mm 0.56 in14.2 mm
11:44 AM 42.6°F5.9°C 42.1°F5.6°C 98% 1.0 mph NNE1.6 kmh NNE 4.0 mph6.4 kmh 30.25 in1024.4 mb 0.00 in0.0 mm 0.00 in0.0 mm 0.56 in14.2 mm
11:39 AM 42.4°F5.8°C 41.9°F5.5°C 98% 2.0 mph NNE3.2 kmh NNE 3.0 mph4.8 kmh 30.25 in1024.4 mb 0.00 in0.0 mm 0.00 in0.0 mm 0.56 in14.2 mm
11:34 AM 42.1°F5.6°C 41.6°F5.3°C 98% 1.0 mph NNE1.6 kmh NNE 4.0 mph6.4 kmh 30.25 in1024.4 mb 0.00 in0.0 mm 0.00 in0.0 mm 0.56 in14.2 mm
11:29 AM 41.9°F5.5°C 41.1°F5.1°C 97% 1.0 mph N1.6 kmh N 4.0 mph6.4 kmh 30.26 in1024.7 mb 0.00 in0.0 mm 0.00 in0.0 mm 0.56 in14.2 mm
11:24 AM 41.9°F5.5°C 41.1°F5.1°C 97% 1.0 mph NNE1.6 kmh NNE 5.0 mph8.0 kmh 30.26 in1024.7 mb 0.00 in0.0 mm 0.00 in0.0 mm 0.56 in14.2 mm
11:19 AM 41.7°F5.4°C 40.9°F4.9°C 97% Calm Calm 5.0 mph8.0 kmh 30.26 in1024.7 mb 0.00 in0.0 mm 0.00 in0.0 mm 0.56 in14.2 mm
11:14 AM 41.5°F5.3°C 40.7°F4.8°C 97% 1.0 mph WNW1.6 kmh WNW 5.0 mph8.0 kmh 30.26 in1024.7 mb 0.00 in0.0 mm 0.00 in0.0 mm 0.56 in14.2 mm
11:09 AM 41.4°F5.2°C 40.6°F4.8°C 97% 1.0 mph N1.6 kmh N 4.0 mph6.4 kmh 30.27 in1025.1 mb 0.00 in0.0 mm 0.00 in0.0 mm 0.56 in14.2 mm
11:04 AM 41.2°F5.1°C 40.4°F4.7°C 97% 1.0 mph NNW1.6 kmh NNW 4.0 mph6.4 kmh 30.27 in1025.1 mb 0.00 in0.0 mm 0.00 in0.0 mm 0.56 in14.2 mm
10:59 AM 41.1°F5.1°C 40.3°F4.6°C 97% Calm Calm 6.0 mph9.7 kmh 30.29 in1025.7 mb 0.00 in0.0 mm 0.00 in0.0 mm 0.56 in14.2 mm
10:54 AM 40.9°F4.9°C 40.1°F4.5°C 97% 3.0 mph W4.8 kmh W 6.0 mph9.7 kmh 30.29 in1025.7 mb 0.00 in0.0 mm 0.00 in0.0 mm 0.56 in14.2 mm
10:49 AM 40.9°F4.9°C 40.1°F4.5°C 97% 3.0 mph W4.8 kmh W 5.0 mph8.0 kmh 30.29 in1025.7 mb 0.00 in0.0 mm 0.00 in0.0 mm 0.56 in14.2 mm
10:44 AM 40.8°F4.9°C 40.0°F4.4°C 97% 3.0 mph W4.8 kmh W 3.0 mph4.8 kmh 30.28 in1025.4 mb 0.00 in0.0 mm 0.00 in0.0 mm 0.56 in14.2 mm
10:39 AM 40.7°F4.8°C 39.9°F4.4°C 97% Calm Calm 2.0 mph3.2 kmh 30.27 in1025.1 mb 0.00 in0.0 mm 0.00 in0.0 mm 0.56 in14.2 mm
10:34 AM 40.6°F4.8°C 39.8°F4.3°C 97% Calm Calm 3.0 mph4.8 kmh 30.26 in1024.7 mb 0.00 in0.0 mm 0.00 in0.0 mm 0.56 in14.2 mm
10:29 AM 40.6°F4.8°C 39.8°F4.3°C 97% Calm Calm 3.0 mph4.8 kmh 30.25 in1024.4 mb 0.00 in0.0 mm 0.00 in0.0 mm 0.56 in14.2 mm
10:24 AM 40.5°F4.7°C 39.7°F4.3°C 97% 1.0 mph NE1.6 kmh NE 6.0 mph9.7 kmh 30.26 in1024.7 mb 0.00 in0.0 mm 0.00 in0.0 mm 0.56 in14.2 mm
10:19 AM 40.3°F4.6°C 39.5°F4.2°C 97% 1.0 mph WSW1.6 kmh WSW 6.0 mph9.7 kmh 30.26 in1024.7 mb 0.00 in0.0 mm 0.00 in0.0 mm 0.56 in14.2 mm
10:14 AM 40.3°F4.6°C 39.5°F4.2°C 97% 2.0 mph SW3.2 kmh SW 3.0 mph4.8 kmh 30.25 in1024.4 mb 0.00 in0.0 mm 0.00 in0.0 mm 0.56 in14.2 mm
10:09 AM 40.3°F4.6°C 39.5°F4.2°C 97% 2.0 mph N3.2 kmh N 5.0 mph8.0 kmh 30.25 in1024.4 mb 0.00 in0.0 mm 0.00 in0.0 mm 0.56 in14.2 mm
10:04 AM 40.3°F4.6°C 39.5°F4.2°C 97% 3.0 mph W4.8 kmh W 9.0 mph14.5 kmh 30.26 in1024.7 mb 0.00 in0.0 mm 0.00 in0.0 mm 0.56 in14.2 mm
09:59 AM 40.4°F4.7°C 39.6°F4.2°C 97% 4.0 mph W6.4 kmh W 9.0 mph14.5 kmh 30.27 in1025.1 mb 0.00 in0.0 mm 0.00 in0.0 mm 0.56 in14.2 mm
09:54 AM 40.4°F4.7°C 39.6°F4.2°C 97% 5.0 mph WNW8.0 kmh WNW 6.0 mph9.7 kmh 30.27 in1025.1 mb 0.00 in0.0 mm 0.00 in0.0 mm 0.56 in14.2 mm
09:49 AM 40.3°F4.6°C 39.5°F4.2°C 97% 2.0 mph W3.2 kmh W 3.0 mph4.8 kmh 30.25 in1024.4 mb 0.00 in0.0 mm 0.00 in0.0 mm 0.56 in14.2 mm
09:44 AM 40.1°F4.5°C 39.3°F4.1°C 97% Calm Calm 2.0 mph3.2 kmh 30.25 in1024.4 mb 0.00 in0.0 mm 0.00 in0.0 mm 0.56 in14.2 mm
09:39 AM 40.0°F4.4°C 39.2°F4.0°C 97% 1.0 mph NNW1.6 kmh NNW 4.0 mph6.4 kmh 30.24 in1024.0 mb 0.04 in1.0 mm 0.00 in0.0 mm 0.56 in14.2 mm
09:34 AM 39.9°F4.4°C 39.1°F3.9°C 97% Calm Calm 5.0 mph8.0 kmh 30.24 in1024.0 mb 0.06 in1.5 mm 0.00 in0.0 mm 0.56 in14.2 mm
09:29 AM 39.8°F4.3°C 39.0°F3.9°C 97% 4.0 mph NE6.4 kmh NE 5.0 mph8.0 kmh 30.23 in1023.7 mb 0.13 in3.3 mm 0.96 in24.4 mm 0.56 in14.2 mm
09:24 AM 39.7°F4.3°C 38.9°F3.8°C 97% 3.0 mph ENE4.8 kmh ENE 4.0 mph6.4 kmh 30.23 in1023.7 mb 0.05 in1.3 mm 0.60 in15.2 mm 0.55 in14.0 mm
09:19 AM 39.6°F4.2°C 38.8°F3.8°C 97% Calm Calm 3.0 mph4.8 kmh 30.25 in1024.4 mb 0.00 in0.0 mm 0.00 in0.0 mm 0.54 in13.7 mm
09:14 AM 39.5°F4.2°C 38.7°F3.7°C 97% 1.0 mph ENE1.6 kmh ENE 3.0 mph4.8 kmh 30.24 in1024.0 mb 0.00 in0.0 mm 0.00 in0.0 mm 0.54 in13.7 mm
09:09 AM 39.4°F4.1°C 38.6°F3.7°C 97% 2.0 mph NNE3.2 kmh NNE 3.0 mph4.8 kmh 30.24 in1024.0 mb 0.00 in0.0 mm 0.00 in0.0 mm 0.53 in13.5 mm
09:04 AM 39.4°F4.1°C 38.6°F3.7°C 97% 1.0 mph NE1.6 kmh NE 2.0 mph3.2 kmh 30.24 in1024.0 mb 0.00 in0.0 mm 0.00 in0.0 mm 0.53 in13.5 mm
08:59 AM 39.3°F4.1°C 38.5°F3.6°C 97% 1.0 mph NE1.6 kmh NE 2.0 mph3.2 kmh 30.24 in1024.0 mb 0.00 in0.0 mm 0.00 in0.0 mm 0.53 in13.5 mm
08:54 AM 39.2°F4.0°C 38.4°F3.6°C 97% 1.0 mph ENE1.6 kmh ENE 4.0 mph6.4 kmh 30.24 in1024.0 mb 0.00 in0.0 mm 0.00 in0.0 mm 0.53 in13.5 mm
08:49 AM 39.1°F3.9°C 38.3°F3.5°C 97% 3.0 mph NE4.8 kmh NE 4.0 mph6.4 kmh 30.24 in1024.0 mb 0.00 in0.0 mm 0.00 in0.0 mm 0.53 in13.5 mm
08:44 AM 39.0°F3.9°C 38.2°F3.4°C 97% 1.0 mph NE1.6 kmh NE 2.0 mph3.2 kmh 30.24 in1024.0 mb 0.00 in0.0 mm 0.00 in0.0 mm 0.53 in13.5 mm
08:39 AM 38.9°F3.8°C 38.1°F3.4°C 97% 1.0 mph NE1.6 kmh NE 2.0 mph3.2 kmh 30.25 in1024.4 mb 0.00 in0.0 mm 0.00 in0.0 mm 0.53 in13.5 mm
08:34 AM 38.9°F3.8°C 38.1°F3.4°C 97% Calm Calm 3.0 mph4.8 kmh 30.25 in1024.4 mb 0.00 in0.0 mm 0.00 in0.0 mm 0.53 in13.5 mm
08:29 AM 38.8°F3.8°C 38.0°F3.3°C 97% 1.0 mph NE1.6 kmh NE 3.0 mph4.8 kmh 30.25 in1024.4 mb 0.00 in0.0 mm 0.00 in0.0 mm 0.53 in13.5 mm
08:24 AM 38.8°F3.8°C 38.0°F3.3°C 97% 2.0 mph ENE3.2 kmh ENE 3.0 mph4.8 kmh 30.25 in1024.4 mb 0.00 in0.0 mm 0.00 in0.0 mm 0.53 in13.5 mm
08:19 AM 38.7°F3.7°C 37.9°F3.3°C 97% 2.0 mph NE3.2 kmh NE 3.0 mph4.8 kmh 30.25 in1024.4 mb 0.00 in0.0 mm 0.00 in0.0 mm 0.53 in13.5 mm
08:14 AM 38.8°F3.8°C 38.0°F3.3°C 97% 1.0 mph NE1.6 kmh NE 4.0 mph6.4 kmh 30.26 in1024.7 mb 0.00 in0.0 mm 0.00 in0.0 mm 0.53 in13.5 mm
08:09 AM 38.8°F3.8°C 38.0°F3.3°C 97% 3.0 mph N4.8 kmh N 4.0 mph6.4 kmh 30.26 in1024.7 mb 0.00 in0.0 mm 0.00 in0.0 mm 0.53 in13.5 mm
08:04 AM 38.8°F3.8°C 38.0°F3.3°C 97% Calm Calm 2.0 mph3.2 kmh 30.27 in1025.1 mb 0.00 in0.0 mm 0.00 in0.0 mm 0.53 in13.5 mm
07:59 AM 38.7°F3.7°C 37.9°F3.3°C 97% 1.0 mph N1.6 kmh N 2.0 mph3.2 kmh 30.26 in1024.7 mb 0.00 in0.0 mm 0.00 in0.0 mm 0.53 in13.5 mm
07:54 AM 38.7°F3.7°C 37.9°F3.3°C 97% Calm Calm 2.0 mph3.2 kmh 30.26 in1024.7 mb 0.00 in0.0 mm 0.00 in0.0 mm 0.53 in13.5 mm
07:49 AM 38.5°F3.6°C 37.7°F3.2°C 97% Calm Calm 4.0 mph6.4 kmh 30.26 in1024.7 mb 0.00 in0.0 mm 0.00 in0.0 mm 0.53 in13.5 mm
07:44 AM 38.5°F3.6°C 37.7°F3.2°C 97% 1.0 mph NE1.6 kmh NE 4.0 mph6.4 kmh 30.25 in1024.4 mb 0.00 in0.0 mm 0.00 in0.0 mm 0.53 in13.5 mm
07:39 AM 38.5°F3.6°C 37.7°F3.2°C 97% 2.0 mph NE3.2 kmh NE 2.0 mph3.2 kmh 30.26 in1024.7 mb 0.00 in0.0 mm 0.00 in0.0 mm 0.53 in13.5 mm
07:34 AM 38.6°F3.7°C 37.8°F3.2°C 97% Calm Calm 1.0 mph1.6 kmh 30.26 in1024.7 mb 0.00 in0.0 mm 0.00 in0.0 mm 0.53 in13.5 mm
07:29 AM 38.5°F3.6°C 37.7°F3.2°C 97% 1.0 mph N1.6 kmh N 4.0 mph6.4 kmh 30.26 in1024.7 mb 0.00 in0.0 mm 0.00 in0.0 mm 0.53 in13.5 mm
07:24 AM 38.4°F3.6°C 37.6°F3.1°C 97% Calm Calm 4.0 mph6.4 kmh 30.25 in1024.4 mb 0.00 in0.0 mm 0.00 in0.0 mm 0.53 in13.5 mm
07:19 AM 38.4°F3.6°C 37.6°F3.1°C 97% 2.0 mph N3.2 kmh N 4.0 mph6.4 kmh 30.25 in1024.4 mb 0.05 in1.3 mm 0.00 in0.0 mm 0.53 in13.5 mm
07:14 AM 38.4°F3.6°C 37.6°F3.1°C 97% 2.0 mph NE3.2 kmh NE 4.0 mph6.4 kmh 30.25 in1024.4 mb 0.05 in1.3 mm 0.00 in0.0 mm 0.53 in13.5 mm
07:09 AM 38.4°F3.6°C 37.6°F3.1°C 97% Calm Calm 2.0 mph3.2 kmh 30.26 in1024.7 mb 0.05 in1.3 mm 0.00 in0.0 mm 0.53 in13.5 mm
07:04 AM 38.4°F3.6°C 37.6°F3.1°C 97% Calm Calm 1.0 mph1.6 kmh 30.27 in1025.1 mb 0.07 in1.8 mm 0.00 in0.0 mm 0.52 in13.2 mm
06:59 AM 38.3°F3.5°C 37.5°F3.1°C 97% Calm Calm 1.0 mph1.6 kmh 30.27 in1025.1 mb 0.17 in4.3 mm 0.00 in0.0 mm 0.52 in13.2 mm
06:54 AM 38.3°F3.5°C 37.5°F3.1°C 97% Calm Calm 2.0 mph3.2 kmh 30.27 in1025.1 mb 0.20 in5.1 mm 0.72 in18.3 mm 0.49 in12.4 mm
06:49 AM 38.3°F3.5°C 37.5°F3.1°C 97% 1.0 mph NE1.6 kmh NE 2.0 mph3.2 kmh 30.26 in1024.7 mb 0.14 in3.6 mm 0.00 in0.0 mm 0.48 in12.2 mm
06:44 AM 38.2°F3.4°C 37.4°F3.0°C 97% Calm Calm 3.0 mph4.8 kmh 30.27 in1025.1 mb 0.50 in12.7 mm 3.60 in91.4 mm 0.46 in11.7 mm
06:39 AM 38.1°F3.4°C 37.3°F2.9°C 97% Calm Calm 3.0 mph4.8 kmh 30.26 in1024.7 mb 0.20 in5.1 mm 1.68 in42.7 mm 0.38 in9.7 mm
06:34 AM 38.1°F3.4°C 37.3°F2.9°C 97% Calm Calm 3.0 mph4.8 kmh 30.26 in1024.7 mb 0.06 in1.5 mm 0.00 in0.0 mm 0.36 in9.1 mm
06:29 AM 38.1°F3.4°C 37.3°F2.9°C 97% Calm Calm 2.0 mph3.2 kmh 30.27 in1025.1 mb 0.13 in3.3 mm 0.00 in0.0 mm 0.36 in9.1 mm
06:24 AM 38.1°F3.4°C 37.3°F2.9°C 97% Calm Calm 4.0 mph6.4 kmh 30.26 in1024.7 mb 0.17 in4.3 mm 0.00 in0.0 mm 0.35 in8.9 mm
06:19 AM 38.1°F3.4°C 37.3°F2.9°C 97% 1.0 mph ESE1.6 kmh ESE 7.0 mph11.3 kmh 30.24 in1024.0 mb 0.78 in19.8 mm 8.40 in213.4 mm 0.34 in8.6 mm
06:14 AM 38.0°F3.3°C 37.2°F2.9°C 97% 4.0 mph WSW6.4 kmh WSW 9.0 mph14.5 kmh 30.25 in1024.4 mb 0.08 in2.0 mm 0.00 in0.0 mm 0.30 in7.6 mm
06:09 AM 38.0°F3.3°C 37.2°F2.9°C 97% Calm Calm 9.0 mph14.5 kmh 30.24 in1024.0 mb 0.15 in3.8 mm 0.00 in0.0 mm 0.29 in7.4 mm
06:04 AM 38.1°F3.4°C 37.3°F2.9°C 97% 5.0 mph NE8.0 kmh NE 7.0 mph11.3 kmh 30.23 in1023.7 mb 1.01 in25.7 mm 0.81 in20.6 mm 0.27 in6.9 mm
05:59 AM 38.1°F3.4°C 37.3°F2.9°C 97% 2.0 mph NE3.2 kmh NE 5.0 mph8.0 kmh 30.24 in1024.0 mb 0.27 in6.9 mm 3.24 in82.3 mm 0.21 in5.3 mm
05:54 AM 38.1°F3.4°C 37.3°F2.9°C 97% 1.0 mph ENE1.6 kmh ENE 3.0 mph4.8 kmh 30.26 in1024.7 mb 0.00 in0.0 mm 0.00 in0.0 mm 0.19 in4.8 mm
05:49 AM 38.1°F3.4°C 37.3°F2.9°C 97% 1.0 mph N1.6 kmh N 3.0 mph4.8 kmh 30.27 in1025.1 mb 0.00 in0.0 mm 0.00 in0.0 mm 0.18 in4.6 mm
05:44 AM 38.0°F3.3°C 37.2°F2.9°C 97% Calm Calm 3.0 mph4.8 kmh 30.26 in1024.7 mb 0.00 in0.0 mm 0.00 in0.0 mm 0.18 in4.6 mm
05:39 AM 38.0°F3.3°C 37.2°F2.9°C 97% Calm Calm 2.0 mph3.2 kmh 30.26 in1024.7 mb 0.00 in0.0 mm 0.00 in0.0 mm 0.18 in4.6 mm
05:34 AM 38.0°F3.3°C 37.2°F2.9°C 97% 2.0 mph ENE3.2 kmh ENE 2.0 mph3.2 kmh 30.26 in1024.7 mb 0.00 in0.0 mm 0.00 in0.0 mm 0.18 in4.6 mm
05:29 AM 37.9°F3.3°C 37.1°F2.8°C 97% Calm Calm 5.0 mph8.0 kmh 30.26 in1024.7 mb 0.00 in0.0 mm 0.00 in0.0 mm 0.18 in4.6 mm
05:24 AM 37.9°F3.3°C 37.1°F2.8°C 97% 2.0 mph NNW3.2 kmh NNW 5.0 mph8.0 kmh 30.25 in1024.4 mb 0.04 in1.0 mm 0.00 in0.0 mm 0.18 in4.6 mm
05:19 AM 37.8°F3.2°C 37.0°F2.8°C 97% 1.0 mph NE1.6 kmh NE 4.0 mph6.4 kmh 30.27 in1025.1 mb 0.06 in1.5 mm 0.00 in0.0 mm 0.18 in4.6 mm
05:14 AM 37.8°F3.2°C 37.0°F2.8°C 97% 2.0 mph NNW3.2 kmh NNW 3.0 mph4.8 kmh 30.26 in1024.7 mb 0.11 in2.8 mm 0.00 in0.0 mm 0.18 in4.6 mm
05:09 AM 37.7°F3.2°C 36.9°F2.7°C 97% 2.0 mph NE3.2 kmh NE 4.0 mph6.4 kmh 30.27 in1025.1 mb 0.16 in4.1 mm 0.00 in0.0 mm 0.18 in4.6 mm
05:04 AM 37.8°F3.2°C 37.0°F2.8°C 97% 2.0 mph NNW3.2 kmh NNW 3.0 mph4.8 kmh 30.27 in1025.1 mb 0.43 in10.9 mm 0.43 in10.9 mm 0.16 in4.1 mm
04:59 AM 37.7°F3.2°C 36.9°F2.7°C 97% Calm Calm 3.0 mph4.8 kmh 30.27 in1025.1 mb 0.04 in1.0 mm 0.00 in0.0 mm 0.14 in3.6 mm
04:54 AM 37.7°F3.2°C 36.9°F2.7°C 97% 1.0 mph E1.6 kmh E 3.0 mph4.8 kmh 30.28 in1025.4 mb 0.04 in1.0 mm 0.00 in0.0 mm 0.14 in3.6 mm
04:49 AM 37.6°F3.1°C 36.8°F2.7°C 97% 1.0 mph NE1.6 kmh NE 3.0 mph4.8 kmh 30.26 in1024.7 mb 0.04 in1.0 mm 0.00 in0.0 mm 0.14 in3.6 mm
04:44 AM 37.5°F3.1°C 36.7°F2.6°C 97% Calm Calm 3.0 mph4.8 kmh 30.26 in1024.7 mb 0.05 in1.3 mm 0.00 in0.0 mm 0.13 in3.3 mm
04:39 AM 37.5°F3.1°C 36.7°F2.6°C 97% Calm Calm 3.0 mph4.8 kmh 30.26 in1024.7 mb 0.08 in2.0 mm 0.00 in0.0 mm 0.13 in3.3 mm
04:34 AM 37.4°F3.0°C 36.6°F2.6°C 97% Calm Calm 2.0 mph3.2 kmh 30.27 in1025.1 mb 0.12 in3.0 mm 0.00 in0.0 mm 0.13 in3.3 mm
04:29 AM 37.3°F2.9°C 36.5°F2.5°C 97% 1.0 mph N1.6 kmh N 2.0 mph3.2 kmh 30.27 in1025.1 mb 0.25 in6.4 mm 0.00 in0.0 mm 0.12 in3.0 mm
04:24 AM 37.3°F2.9°C 36.5°F2.5°C 97% 1.0 mph WNW1.6 kmh WNW 2.0 mph3.2 kmh 30.28 in1025.4 mb 2.87 in72.9 mm 22.08 in560.8 mm 0.08 in2.0 mm
04:19 AM 37.3°F2.9°C 36.5°F2.5°C 97% Calm Calm 4.0 mph6.4 kmh 30.27 in1025.1 mb 1.03 in26.2 mm 12.36 in313.9 mm 0.03 in0.8 mm
04:14 AM 37.2°F2.9°C 36.4°F2.4°C 97% 2.0 mph NW3.2 kmh NW 3.0 mph4.8 kmh 30.27 in1025.1 mb 0.00 in0.0 mm 0.00 in0.0 mm 0.01 in0.3 mm
04:09 AM 37.2°F2.9°C 36.4°F2.4°C 97% Calm Calm 2.0 mph3.2 kmh 30.28 in1025.4 mb 0.00 in0.0 mm 0.00 in0.0 mm 0.00 in0.0 mm
04:04 AM 37.1°F2.8°C 36.3°F2.4°C 97% Calm Calm 4.0 mph6.4 kmh 30.28 in1025.4 mb 0.00 in0.0 mm 0.00 in0.0 mm 0.00 in0.0 mm
03:59 AM 37.0°F2.8°C 36.2°F2.3°C 97% 1.0 mph S1.6 kmh S 5.0 mph8.0 kmh 30.27 in1025.1 mb 0.00 in0.0 mm 0.00 in0.0 mm 0.00 in0.0 mm
03:54 AM 37.0°F2.8°C 36.2°F2.3°C 97% 3.0 mph NNW4.8 kmh NNW 4.0 mph6.4 kmh 30.27 in1025.1 mb 0.00 in0.0 mm 0.00 in0.0 mm 0.00 in0.0 mm
03:49 AM 37.0°F2.8°C 36.2°F2.3°C 97% 1.0 mph N1.6 kmh N 2.0 mph3.2 kmh 30.28 in1025.4 mb 0.00 in0.0 mm 0.00 in0.0 mm 0.00 in0.0 mm
03:44 AM 37.0°F2.8°C 36.2°F2.3°C 97% 2.0 mph SSE3.2 kmh SSE 2.0 mph3.2 kmh 30.30 in1026.1 mb 0.00 in0.0 mm 0.00 in0.0 mm 0.00 in0.0 mm
03:39 AM 36.9°F2.7°C 36.1°F2.3°C 97% 1.0 mph N1.6 kmh N 3.0 mph4.8 kmh 30.28 in1025.4 mb 0.00 in0.0 mm 0.00 in0.0 mm 0.00 in0.0 mm
03:34 AM 36.9°F2.7°C 36.1°F2.3°C 97% 1.0 mph SSW1.6 kmh SSW 3.0 mph4.8 kmh 30.30 in1026.1 mb 0.00 in0.0 mm 0.00 in0.0 mm 0.00 in0.0 mm
03:29 AM 36.9°F2.7°C 36.1°F2.3°C 97% Calm Calm 3.0 mph4.8 kmh 30.28 in1025.4 mb 0.00 in0.0 mm 0.00 in0.0 mm 0.00 in0.0 mm
03:24 AM 37.0°F2.8°C 36.2°F2.3°C 97% 2.0 mph W3.2 kmh W 5.0 mph8.0 kmh 30.28 in1025.4 mb 0.00 in0.0 mm 0.00 in0.0 mm 0.00 in0.0 mm
03:19 AM 37.0°F2.8°C 36.2°F2.3°C 97% 1.0 mph W1.6 kmh W 5.0 mph8.0 kmh 30.27 in1025.1 mb 0.00 in0.0 mm 0.00 in0.0 mm 0.00 in0.0 mm
03:14 AM 37.0°F2.8°C 36.2°F2.3°C 97% 2.0 mph WNW3.2 kmh WNW 4.0 mph6.4 kmh 30.26 in1024.7 mb 0.00 in0.0 mm 0.00 in0.0 mm 0.00 in0.0 mm
03:09 AM 37.0°F2.8°C 36.2°F2.3°C 97% Calm Calm 2.0 mph3.2 kmh 30.27 in1025.1 mb 0.00 in0.0 mm 0.00 in0.0 mm 0.00 in0.0 mm
03:04 AM 37.0°F2.8°C 36.2°F2.3°C 97% Calm Calm 2.0 mph3.2 kmh 30.27 in1025.1 mb 0.00 in0.0 mm 0.00 in0.0 mm 0.00 in0.0 mm
02:59 AM 36.9°F2.7°C 36.1°F2.3°C 97% Calm Calm 1.0 mph1.6 kmh 30.27 in1025.1 mb 0.00 in0.0 mm 0.00 in0.0 mm 0.00 in0.0 mm
02:54 AM 36.9°F2.7°C 36.1°F2.3°C 97% Calm Calm 2.0 mph3.2 kmh 30.27 in1025.1 mb 0.00 in0.0 mm 0.00 in0.0 mm 0.00 in0.0 mm
02:49 AM 36.9°F2.7°C 36.1°F2.3°C 97% 1.0 mph SW1.6 kmh SW 2.0 mph3.2 kmh 30.27 in1025.1 mb 0.00 in0.0 mm 0.00 in0.0 mm 0.00 in0.0 mm
02:44 AM 36.9°F2.7°C 36.1°F2.3°C 97% Calm Calm 1.0 mph1.6 kmh 30.27 in1025.1 mb 0.00 in0.0 mm 0.00 in0.0 mm 0.00 in0.0 mm
02:39 AM 36.9°F2.7°C 36.1°F2.3°C 97% Calm Calm 1.0 mph1.6 kmh 30.27 in1025.1 mb 0.00 in0.0 mm 0.00 in0.0 mm 0.00 in0.0 mm
02:34 AM 37.0°F2.8°C 36.2°F2.3°C 97% Calm Calm 1.0 mph1.6 kmh 30.27 in1025.1 mb 0.00 in0.0 mm 0.00 in0.0 mm 0.00 in0.0 mm
02:29 AM 36.9°F2.7°C 36.1°F2.3°C 97% Calm Calm 1.0 mph1.6 kmh 30.27 in1025.1 mb 0.00 in0.0 mm 0.00 in0.0 mm 0.00 in0.0 mm
02:24 AM 36.9°F2.7°C 36.1°F2.3°C 97% 1.0 mph WSW1.6 kmh WSW 1.0 mph1.6 kmh 30.27 in1025.1 mb 0.00 in0.0 mm 0.00 in0.0 mm 0.00 in0.0 mm
02:19 AM 36.9°F2.7°C 36.1°F2.3°C 97% Calm Calm 2.0 mph3.2 kmh 30.27 in1025.1 mb 0.00 in0.0 mm 0.00 in0.0 mm 0.00 in0.0 mm
02:14 AM 36.9°F2.7°C 36.1°F2.3°C 97% Calm Calm 2.0 mph3.2 kmh 30.28 in1025.4 mb 0.00 in0.0 mm 0.00 in0.0 mm 0.00 in0.0 mm
02:09 AM 37.0°F2.8°C 36.2°F2.3°C 97% 2.0 mph W3.2 kmh W 1.0 mph1.6 kmh 30.28 in1025.4 mb 0.00 in0.0 mm 0.00 in0.0 mm 0.00 in0.0 mm
02:04 AM 37.1°F2.8°C 36.3°F2.4°C 97% Calm Calm 1.0 mph1.6 kmh 30.28 in1025.4 mb 0.00 in0.0 mm 0.00 in0.0 mm 0.00 in0.0 mm
01:59 AM 37.1°F2.8°C 36.3°F2.4°C 97% Calm Calm -- 30.29 in1025.7 mb 0.00 in0.0 mm 0.00 in0.0 mm 0.00 in0.0 mm
01:54 AM 37.1°F2.8°C 36.3°F2.4°C 97% Calm Calm -- 30.29 in1025.7 mb 0.00 in0.0 mm 0.00 in0.0 mm 0.00 in0.0 mm
01:49 AM 37.1°F2.8°C 36.3°F2.4°C 97% Calm Calm 1.0 mph1.6 kmh 30.28 in1025.4 mb 0.00 in0.0 mm 0.00 in0.0 mm 0.00 in0.0 mm
01:44 AM 37.1°F2.8°C 36.3°F2.4°C 97% Calm Calm 1.0 mph1.6 kmh 30.30 in1026.1 mb 0.00 in0.0 mm 0.00 in0.0 mm 0.00 in0.0 mm
01:39 AM 37.0°F2.8°C 36.2°F2.3°C 97% Calm Calm 2.0 mph3.2 kmh 30.29 in1025.7 mb 0.00 in0.0 mm 0.00 in0.0 mm 0.00 in0.0 mm
01:34 AM 36.9°F2.7°C 36.1°F2.3°C 97% Calm Calm 2.0 mph3.2 kmh 30.29 in1025.7 mb 0.00 in0.0 mm 0.00 in0.0 mm 0.00 in0.0 mm
01:29 AM 36.9°F2.7°C 36.1°F2.3°C 97% 1.0 mph WNW1.6 kmh WNW 3.0 mph4.8 kmh 30.28 in1025.4 mb 0.00 in0.0 mm 0.00 in0.0 mm 0.00 in0.0 mm
01:24 AM 36.8°F2.7°C 36.0°F2.2°C 97% Calm Calm 3.0 mph4.8 kmh 30.27 in1025.1 mb 0.00 in0.0 mm 0.00 in0.0 mm 0.00 in0.0 mm
01:19 AM 36.8°F2.7°C 36.0°F2.2°C 97% 1.0 mph W1.6 kmh W 2.0 mph3.2 kmh 30.28 in1025.4 mb 0.00 in0.0 mm 0.00 in0.0 mm 0.00 in0.0 mm
01:14 AM 36.8°F2.7°C 36.0°F2.2°C 97% Calm Calm 2.0 mph3.2 kmh 30.28 in1025.4 mb 0.00 in0.0 mm 0.00 in0.0 mm 0.00 in0.0 mm
01:09 AM 36.9°F2.7°C 36.1°F2.3°C 97% Calm Calm 1.0 mph1.6 kmh 30.28 in1025.4 mb 0.00 in0.0 mm 0.00 in0.0 mm 0.00 in0.0 mm
01:04 AM 36.8°F2.7°C 36.0°F2.2°C 97% 1.0 mph WSW1.6 kmh WSW 3.0 mph4.8 kmh 30.28 in1025.4 mb 0.00 in0.0 mm 0.00 in0.0 mm 0.00 in0.0 mm
12:59 AM 36.8°F2.7°C 36.0°F2.2°C 97% Calm Calm 4.0 mph6.4 kmh 30.27 in1025.1 mb 0.00 in0.0 mm 0.00 in0.0 mm 0.00 in0.0 mm
12:54 AM 36.8°F2.7°C 36.0°F2.2°C 97% 3.0 mph WSW4.8 kmh WSW 3.0 mph4.8 kmh 30.27 in1025.1 mb 0.00 in0.0 mm 0.00 in0.0 mm 0.00 in0.0 mm
12:49 AM 36.8°F2.7°C 36.0°F2.2°C 97% 1.0 mph W1.6 kmh W 2.0 mph3.2 kmh 30.28 in1025.4 mb 0.00 in0.0 mm 0.00 in0.0 mm 0.00 in0.0 mm
12:44 AM 36.8°F2.7°C 36.0°F2.2°C 97% 1.0 mph WNW1.6 kmh WNW 2.0 mph3.2 kmh 30.28 in1025.4 mb 0.00 in0.0 mm 0.00 in0.0 mm 0.00 in0.0 mm
12:39 AM 36.8°F2.7°C 36.0°F2.2°C 97% Calm Calm 3.0 mph4.8 kmh 30.28 in1025.4 mb 0.00 in0.0 mm 0.00 in0.0 mm 0.00 in0.0 mm
12:34 AM 36.8°F2.7°C 36.0°F2.2°C 97% 1.0 mph WSW1.6 kmh WSW 3.0 mph4.8 kmh 30.28 in1025.4 mb 0.00 in0.0 mm 0.00 in0.0 mm 0.00 in0.0 mm
12:29 AM 36.8°F2.7°C 36.0°F2.2°C 97% 1.0 mph W1.6 kmh W 2.0 mph3.2 kmh 30.28 in1025.4 mb 0.00 in0.0 mm 0.00 in0.0 mm 0.00 in0.0 mm
12:24 AM 36.7°F2.6°C 35.9°F2.2°C 97% Calm Calm 2.0 mph3.2 kmh 30.28 in1025.4 mb 0.00 in0.0 mm 0.00 in0.0 mm 0.00 in0.0 mm
12:19 AM 36.7°F2.6°C 35.9°F2.2°C 97% Calm Calm 3.0 mph4.8 kmh 30.28 in1025.4 mb 0.00 in0.0 mm 0.00 in0.0 mm 0.00 in0.0 mm
12:14 AM 36.7°F2.6°C 35.9°F2.2°C 97% 2.0 mph WNW3.2 kmh WNW 7.0 mph11.3 kmh 30.28 in1025.4 mb 0.00 in0.0 mm 0.00 in0.0 mm 0.00 in0.0 mm
12:09 AM 36.6°F2.6°C 35.8°F2.1°C 97% 2.0 mph W3.2 kmh W 7.0 mph11.3 kmh 30.28 in1025.4 mb 0.00 in0.0 mm 0.00 in0.0 mm 0.00 in0.0 mm
12:04 AM 36.6°F2.6°C 35.8°F2.1°C 97% 4.0 mph W6.4 kmh W 6.0 mph9.7 kmh 30.27 in1025.1 mb 0.00 in0.0 mm 0.00 in0.0 mm 0.00 in0.0 mm